Time;durP1;ratioP1;P1;durP2;ratioP2;P2;SDS_P1;SDS_P2;PMS_P1;PMS_P2;Temp;Humidity;BMP_temperature;BMP_pressure;BME280_temperature;BME280_humidity;BME280_pressure;Samples;Min_cycle;Max_cycle;Signal;HPM_P1;HPM_P2
2023/07/16 00:02:04;;;;;;;2.92;2.20;;;19.20;99.90;;;;;;7388355;19;20014;-66
2023/07/16 00:04:37;;;;;;;2.20;2.00;;;19.10;99.90;;;;;;7388110;19;20111;-66
2023/07/16 00:07:08;;;;;;;3.05;2.25;;;19.10;99.90;;;;;;7394720;19;20015;-66
2023/07/16 00:09:38;;;;;;;3.75;2.22;;;19.10;99.90;;;;;;7395326;19;20022;-66
2023/07/16 00:12:09;;;;;;;5.03;2.30;;;19.00;99.90;;;;;;7394264;19;20019;-66
2023/07/16 00:14:39;;;;;;;4.13;2.35;;;19.00;99.90;;;;;;7395509;19;20025;-66
2023/07/16 00:17:09;;;;;;;4.88;2.20;;;19.10;99.90;;;;;;7393752;19;20040;-66
2023/07/16 00:19:41;;;;;;;3.80;2.72;;;19.00;99.90;;;;;;7394932;19;20132;-66
2023/07/16 00:22:11;;;;;;;2.85;2.42;;;19.00;99.90;;;;;;7395439;19;20019;-66
2023/07/16 00:24:41;;;;;;;2.60;2.13;;;19.00;99.90;;;;;;7394608;19;20022;-65
2023/07/16 00:27:11;;;;;;;2.83;2.40;;;19.10;99.90;;;;;;7395049;19;20015;-66
2023/07/16 00:29:41;;;;;;;2.42;1.90;;;19.10;99.90;;;;;;7393906;19;20053;-66
2023/07/16 00:32:11;;;;;;;3.35;2.08;;;18.90;99.90;;;;;;7395530;19;20018;-66
2023/07/16 00:34:44;;;;;;;2.67;2.00;;;19.00;99.90;;;;;;7394335;19;20039;-65
2023/07/16 00:37:14;;;;;;;2.83;2.38;;;19.00;99.90;;;;;;7393101;19;20011;-66
2023/07/16 00:39:44;;;;;;;4.65;2.05;;;19.00;99.90;;;;;;7393944;19;20022;-65
2023/07/16 00:42:14;;;;;;;2.65;1.80;;;19.10;99.90;;;;;;7394590;19;20476;-65
2023/07/16 00:44:44;;;;;;;1.77;1.45;;;18.90;99.90;;;;;;7392800;19;20019;-66
2023/07/16 00:47:14;;;;;;;5.05;1.50;;;18.80;99.90;;;;;;7398849;19;20135;-66
2023/07/16 00:49:47;;;;;;;2.58;1.30;;;18.70;99.90;;;;;;7394089;19;20018;-65
2023/07/16 00:52:22;;;;;;;3.45;1.38;;;18.80;99.90;;;;;;7394292;19;20018;-66
2023/07/16 00:54:52;;;;;;;7.07;1.38;;;18.70;99.90;;;;;;7393982;19;20014;-65
2023/07/16 00:57:22;;;;;;;1.63;1.20;;;18.60;99.90;;;;;;7392899;19;20018;-66
2023/07/16 00:59:52;;;;;;;3.10;1.20;;;18.70;99.90;;;;;;7393139;19;20538;-66
2023/07/16 01:02:22;;;;;;;1.20;1.10;;;18.70;99.90;;;;;;7393930;19;20080;-64
2023/07/16 01:04:54;;;;;;;2.00;1.27;;;18.70;99.90;;;;;;7393688;19;20090;-66
2023/07/16 01:07:27;;;;;;;1.23;0.85;;;18.80;99.90;;;;;;7394273;19;20018;-66
2023/07/16 01:09:58;;;;;;;2.25;1.10;;;18.80;99.90;;;;;;7393434;19;20014;-66
2023/07/16 01:12:30;;;;;;;1.15;1.02;;;18.70;99.90;;;;;;7394091;19;20014;-66
2023/07/16 01:15:01;;;;;;;1.20;1.10;;;18.60;99.90;;;;;;7393159;19;20023;-66
2023/07/16 01:17:31;;;;;;;1.08;0.90;;;18.70;99.90;;;;;;7390800;19;20015;-66
2023/07/16 01:20:05;;;;;;;1.77;1.17;;;18.60;99.90;;;;;;7392480;19;20078;-64
2023/07/16 01:22:51;;;;;;;2.15;1.08;;;18.80;99.90;;;;;;7393953;19;20018;-66
2023/07/16 01:25:49;;;;;;;0.80;0.80;;;18.80;99.90;;;;;;7393263;19;20018;-66
2023/07/16 01:28:39;;;;;;;2.30;1.30;;;18.80;99.90;;;;;;7393638;19;20351;-66
2023/07/16 01:31:13;;;;;;;1.25;0.90;;;18.70;99.90;;;;;;7391472;19;20018;-66
2023/07/16 01:33:45;;;;;;;1.20;0.90;;;18.90;99.90;;;;;;7393290;19;20010;-66
2023/07/16 01:36:16;;;;;;;5.93;4.65;;;18.80;99.90;;;;;;7392939;19;20014;-66
2023/07/16 01:38:47;;;;;;;1.45;1.00;;;18.70;99.90;;;;;;7390911;19;20014;-66
2023/07/16 01:41:18;;;;;;;4.90;1.10;;;18.70;99.90;;;;;;7391038;19;20027;-66
2023/07/16 01:43:48;;;;;;;1.15;0.95;;;18.80;99.90;;;;;;7392617;19;20617;-66
2023/07/16 01:46:21;;;;;;;4.80;1.02;;;18.70;99.90;;;;;;7393705;19;20015;-67
2023/07/16 01:48:51;;;;;;;1.65;0.80;;;18.60;99.90;;;;;;7392968;19;20019;-66
2023/07/16 01:51:21;;;;;;;1.27;0.88;;;18.70;99.90;;;;;;7391045;19;20081;-66
2023/07/16 01:53:51;;;;;;;2.85;1.20;;;18.60;99.90;;;;;;7392707;19;20045;-66
2023/07/16 01:56:21;;;;;;;1.50;0.85;;;18.70;99.90;;;;;;7392384;19;20365;-66
2023/07/16 01:58:51;;;;;;;3.33;0.80;;;18.80;99.90;;;;;;7390782;19;20761;-66
2023/07/16 02:01:24;;;;;;;1.35;1.00;;;18.70;99.90;;;;;;7390319;19;20018;-66
2023/07/16 02:03:54;;;;;;;1.05;0.77;;;18.70;99.90;;;;;;7392141;19;20022;-66
2023/07/16 02:06:24;;;;;;;1.10;1.00;;;18.70;74.60;;;;;;7392436;19;20022;-66
2023/07/16 02:08:54;;;;;;;1.35;0.90;;;18.70;33.40;;;;;;7392031;19;20018;-66
2023/07/16 02:11:24;;;;;;;1.70;0.93;;;18.60;32.00;;;;;;7390209;19;20035;-66
2023/07/16 02:13:54;;;;;;;5.72;1.23;;;18.80;34.20;;;;;;7391490;19;20036;-66
2023/07/16 02:16:26;;;;;;;2.13;0.82;;;18.60;10.00;;;;;;7391587;19;20542;-66
2023/07/16 02:18:56;;;;;;;1.90;1.17;;;18.60;30.60;;;;;;7389883;19;20021;-66
2023/07/16 02:21:26;;;;;;;2.80;1.35;;;18.80;32.10;;;;;;7389301;19;20486;-66
2023/07/16 02:23:56;;;;;;;2.72;1.38;;;18.80;28.00;;;;;;7389289;19;20349;-66
2023/07/16 02:26:26;;;;;;;1.80;0.93;;;18.70;4.60;;;;;;7392226;19;20015;-66
2023/07/16 02:28:57;;;;;;;2.72;0.95;;;18.70;1.00;;;;;;7391507;19;20026;-66
2023/07/16 02:31:30;;;;;;;1.42;1.08;;;18.80;6.30;;;;;;7389763;19;20081;-66
2023/07/16 02:34:00;;;;;;;2.05;1.23;;;18.80;4.00;;;;;;7390697;19;20049;-66
2023/07/16 02:36:30;;;;;;;1.38;1.17;;;18.90;1.00;;;;;;7390933;19;20619;-66
2023/07/16 02:39:00;;;;;;;1.25;1.00;;;18.90;1.00;;;;;;7389510;19;20753;-67
2023/07/16 02:41:29;;;;;;;5.00;1.15;;;18.80;1.00;;;;;;7389247;19;20014;-66
2023/07/16 02:44:03;;;;;;;2.08;1.30;;;18.90;1.00;;;;;;7390779;19;20039;-66
2023/07/16 02:46:36;;;;;;;2.07;1.00;;;19.00;1.00;;;;;;7393867;19;20356;-67
2023/07/16 02:49:06;;;;;;;2.38;1.20;;;18.80;1.00;;;;;;7390515;19;20247;-66
2023/07/16 02:51:36;;;;;;;2.05;1.10;;;18.90;1.00;;;;;;7388555;19;20411;-65
2023/07/16 02:54:06;;;;;;;2.50;0.98;;;18.70;1.00;;;;;;7390410;19;20026;-64
2023/07/16 02:56:36;;;;;;;3.15;1.35;;;18.70;1.00;;;;;;7390468;19;20007;-65
2023/07/16 02:59:06;;;;;;;4.38;1.30;;;18.70;1.00;;;;;;7387326;19;20011;-65
2023/07/16 03:01:39;;;;;;;1.25;1.05;;;18.80;1.00;;;;;;7388505;19;20094;-65
2023/07/16 03:04:09;;;;;;;2.45;1.20;;;18.80;1.00;;;;;;7389851;19;20042;-65
2023/07/16 03:06:39;;;;;;;2.20;1.38;;;18.60;1.00;;;;;;7389959;19;20037;-65
2023/07/16 03:09:09;;;;;;;2.20;1.25;;;18.60;1.00;;;;;;7389959;19;20018;-64
2023/07/16 03:11:39;;;;;;;3.03;1.20;;;18.70;1.00;;;;;;7388413;19;20010;-65
2023/07/16 03:14:09;;;;;;;2.25;1.30;;;18.70;1.00;;;;;;7389650;19;20018;-65
2023/07/16 03:16:41;;;;;;;5.25;1.52;;;18.70;1.00;;;;;;7390060;19;20082;-65
2023/07/16 03:19:11;;;;;;;2.58;1.20;;;18.70;1.00;;;;;;7388475;19;20018;-65
2023/07/16 03:21:41;;;;;;;4.43;1.10;;;18.80;1.00;;;;;;7387857;19;20037;-66
2023/07/16 03:24:12;;;;;;;3.03;1.33;;;18.70;1.00;;;;;;7389266;19;20018;-66
2023/07/16 03:26:42;;;;;;;2.75;1.17;;;18.60;1.00;;;;;;7389752;19;20322;-65
2023/07/16 03:29:12;;;;;;;4.78;1.60;;;18.60;1.00;;;;;;7389580;19;20031;-65
2023/07/16 03:31:44;;;;;;;3.83;1.45;;;18.70;1.00;;;;;;7387689;19;20088;-65
2023/07/16 03:34:14;;;;;;;3.17;1.67;;;18.60;1.00;;;;;;7388939;19;20018;-65
2023/07/16 03:36:44;;;;;;;4.03;1.70;;;18.70;1.00;;;;;;7389515;19;20078;-65
2023/07/16 03:39:14;;;;;;;5.47;1.35;;;18.80;1.00;;;;;;7388130;19;20086;-65
2023/07/16 03:41:44;;;;;;;5.63;1.40;;;18.90;1.00;;;;;;7388036;19;20085;-65
2023/07/16 03:44:14;;;;;;;3.75;1.20;;;18.70;1.00;;;;;;7388783;19;20494;-65
2023/07/16 03:46:46;;;;;;;6.07;1.77;;;18.80;1.00;;;;;;7392412;19;20054;-65
2023/07/16 03:49:16;;;;;;;2.45;1.30;;;18.80;1.00;;;;;;7389272;19;20047;-65
2023/07/16 03:51:46;;;;;;;4.57;1.52;;;18.80;1.00;;;;;;7389238;19;20019;-66
2023/07/16 03:54:16;;;;;;;3.60;1.58;;;18.80;1.00;;;;;;7387320;19;20010;-65
2023/07/16 03:56:46;;;;;;;5.90;1.55;;;18.80;1.00;;;;;;7388688;19;20022;-65
2023/07/16 03:59:16;;;;;;;5.47;1.77;;;18.80;1.00;;;;;;7387624;19;20408;-65
2023/07/16 04:01:49;;;;;;;4.30;1.50;;;18.90;1.00;;;;;;7388507;19;20027;-66
2023/07/16 04:04:19;;;;;;;6.68;1.60;;;18.90;1.00;;;;;;7388489;19;20018;-65
2023/07/16 04:06:49;;;;;;;4.35;1.77;;;19.00;1.00;;;;;;7388664;19;20015;-65
2023/07/16 04:09:19;;;;;;;6.45;1.77;;;18.90;1.00;;;;;;7388132;19;20074;-66
2023/07/16 04:11:49;;;;;;;9.07;1.70;;;18.60;1.00;;;;;;7386992;19;20018;-65
2023/07/16 04:14:19;;;;;;;4.43;1.50;;;18.60;1.00;;;;;;7387788;19;20014;-66
2023/07/16 04:16:51;;;;;;;2.90;1.55;;;18.70;1.00;;;;;;7388346;19;20082;-64
2023/07/16 04:19:21;;;;;;;5.07;1.70;;;18.80;1.00;;;;;;7386699;19;20022;-66
2023/07/16 04:21:51;;;;;;;5.63;1.48;;;18.80;1.00;;;;;;7388108;19;20057;-66
2023/07/16 04:24:21;;;;;;;3.95;1.52;;;18.80;1.00;;;;;;7387820;19;20022;-66
2023/07/16 04:26:51;;;;;;;5.57;1.55;;;18.60;1.00;;;;;;7388372;19;20090;-66
2023/07/16 04:29:21;;;;;;;5.18;1.65;;;18.50;1.00;;;;;;7387653;19;20420;-65
2023/07/16 04:31:53;;;;;;;8.80;1.83;;;18.60;1.00;;;;;;7387731;19;20017;-65
2023/07/16 04:34:23;;;;;;;7.20;1.77;;;18.60;1.00;;;;;;7387418;19;20042;-65
2023/07/16 04:36:53;;;;;;;5.55;1.90;;;18.60;1.00;;;;;;7387243;19;20018;-65
2023/07/16 04:39:23;;;;;;;8.70;1.60;;;18.50;1.00;;;;;;7386727;19;20018;-64
2023/07/16 04:41:53;;;;;;;5.28;1.65;;;18.50;1.00;;;;;;7387002;19;20010;-65
2023/07/16 04:44:23;;;;;;;5.18;1.65;;;18.70;1.00;;;;;;7388052;19;20011;-65
2023/07/16 04:46:56;;;;;;;7.53;1.85;;;18.80;1.00;;;;;;7390770;19;20470;-65
2023/07/16 04:49:26;;;;;;;5.68;1.52;;;18.70;1.00;;;;;;7386818;19;20015;-65
2023/07/16 04:51:56;;;;;;;4.35;1.40;;;18.70;1.00;;;;;;7387039;19;20591;-65
2023/07/16 04:54:26;;;;;;;4.95;2.05;;;18.70;1.00;;;;;;7394387;19;20482;-65
2023/07/16 04:56:56;;;;;;;6.88;1.63;;;18.80;1.00;;;;;;7394759;19;20082;-66
2023/07/16 04:59:25;;;;;;;8.25;1.75;;;18.70;1.00;;;;;;7393319;19;20014;-65
2023/07/16 05:01:58;;;;;;;5.68;1.83;;;18.70;1.00;;;;;;7394341;19;20023;-65
2023/07/16 05:04:28;;;;;;;5.55;1.40;;;18.70;1.00;;;;;;7393937;19;20363;-65
2023/07/16 05:06:58;;;;;;;6.35;1.88;;;18.70;1.00;;;;;;7394072;19;20018;-65
2023/07/16 05:09:28;;;;;;;5.38;1.80;;;18.90;1.00;;;;;;7394096;19;20014;-65
2023/07/16 05:11:58;;;;;;;7.90;1.90;;;18.90;1.00;;;;;;7393688;19;20132;-65
2023/07/16 05:14:30;;;;;;;7.90;2.03;;;19.00;1.00;;;;;;7393946;19;20035;-65
2023/07/16 05:17:02;;;;;;;3.92;1.63;;;19.00;1.00;;;;;;7393679;19;20015;-65
2023/07/16 05:19:32;;;;;;;4.85;1.48;;;19.00;1.00;;;;;;7392594;19;20033;-65
2023/07/16 05:22:02;;;;;;;4.10;1.30;;;19.00;1.00;;;;;;7393647;19;20018;-65
2023/07/16 05:24:33;;;;;;;5.03;1.50;;;18.90;1.00;;;;;;7393159;19;20131;-65
2023/07/16 05:27:03;;;;;;;8.18;1.80;;;19.00;1.00;;;;;;7393555;19;20094;-65
2023/07/16 05:29:33;;;;;;;2.80;1.40;;;19.10;1.00;;;;;;7393063;19;20086;-65
2023/07/16 05:32:07;;;;;;;2.78;1.30;;;19.20;1.00;;;;;;7393429;19;20023;-65
2023/07/16 05:34:37;;;;;;;4.57;1.47;;;19.10;1.00;;;;;;7393226;19;20034;-65
2023/07/16 05:37:08;;;;;;;3.67;1.60;;;19.20;1.00;;;;;;7392809;19;20267;-65
2023/07/16 05:39:38;;;;;;;3.30;1.30;;;19.40;1.00;;;;;;7392017;19;20054;-65
2023/07/16 05:42:08;;;;;;;5.45;1.52;;;19.50;1.00;;;;;;7393053;19;20041;-65
2023/07/16 05:44:38;;;;;;;6.25;1.73;;;19.50;1.00;;;;;;7390881;19;20362;-65
2023/07/16 05:47:11;;;;;;;6.40;1.58;;;19.40;1.00;;;;;;7397348;19;20415;-65
2023/07/16 05:49:41;;;;;;;5.50;1.83;;;19.50;1.00;;;;;;7392221;19;20014;-66
2023/07/16 05:52:11;;;;;;;5.57;1.40;;;19.60;1.00;;;;;;7392333;19;20035;-65
2023/07/16 05:54:41;;;;;;;3.78;1.60;;;19.70;1.00;;;;;;7392303;19;20085;-65
2023/07/16 05:57:11;;;;;;;8.10;1.70;;;21.00;1.00;;;;;;7392472;19;20022;-65
2023/07/16 05:59:41;;;;;;;6.05;1.77;;;20.00;1.00;;;;;;7390241;19;20039;-65
2023/07/16 06:02:13;;;;;;;7.03;1.63;;;20.10;1.00;;;;;;7391723;19;20015;-65
2023/07/16 06:04:43;;;;;;;7.40;1.63;;;20.70;1.00;;;;;;7391328;19;20041;-65
2023/07/16 06:07:14;;;;;;;4.22;1.30;;;20.30;1.00;;;;;;7392113;19;20014;-65
2023/07/16 06:09:44;;;;;;;6.10;1.63;;;20.20;1.00;;;;;;7391334;19;20499;-65
2023/07/16 06:12:14;;;;;;;4.68;1.40;;;20.10;1.00;;;;;;7392238;19;20031;-65
2023/07/16 06:14:44;;;;;;;4.68;1.60;;;20.10;1.00;;;;;;7391748;19;20033;-65
2023/07/16 06:17:16;;;;;;;7.22;1.83;;;19.80;1.00;;;;;;7392179;19;20084;-65
2023/07/16 06:19:48;;;;;;;6.03;1.70;;;19.80;1.00;;;;;;7389602;19;20018;-65
2023/07/16 06:22:18;;;;;;;6.88;1.60;;;19.80;1.00;;;;;;7391897;19;20015;-65
2023/07/16 06:24:48;;;;;;;4.25;1.50;;;20.00;1.00;;;;;;7391223;19;20014;-64
2023/07/16 06:27:17;;;;;;;6.18;1.70;;;20.00;1.00;;;;;;7391666;19;20018;-64
2023/07/16 06:29:47;;;;;;;5.70;1.80;;;20.00;1.00;;;;;;7390734;19;20022;-64
2023/07/16 06:32:20;;;;;;;4.90;1.98;;;19.90;1.00;;;;;;7391656;19;20050;-64
2023/07/16 06:34:50;;;;;;;6.05;1.90;;;19.80;1.00;;;;;;7390911;19;20023;-64
2023/07/16 06:37:23;;;;;;;5.60;1.40;;;19.90;1.00;;;;;;7391354;19;20144;-65
2023/07/16 06:39:53;;;;;;;3.72;1.70;;;20.00;1.00;;;;;;7389908;19;20011;-64
2023/07/16 06:42:23;;;;;;;4.70;1.52;;;19.90;1.00;;;;;;7389175;19;20380;-66
2023/07/16 06:44:53;;;;;;;6.07;1.70;;;20.20;1.00;;;;;;7390692;19;20018;-64
2023/07/16 06:47:25;;;;;;;5.30;2.03;;;20.20;1.00;;;;;;7391192;19;20018;-65
2023/07/16 06:49:55;;;;;;;7.25;1.80;;;20.30;1.00;;;;;;7389927;19;20018;-64
2023/07/16 06:52:27;;;;;;;7.20;1.55;;;20.20;1.00;;;;;;7389924;19;20078;-64
2023/07/16 06:54:57;;;;;;;4.20;1.90;;;20.20;1.00;;;;;;7389709;19;20031;-64
2023/07/16 06:57:27;;;;;;;5.97;2.70;;;20.40;1.00;;;;;;7390450;19;20092;-64
2023/07/16 06:59:57;;;;;;;5.03;2.00;;;20.50;1.00;;;;;;7389657;19;20018;-64
2023/07/16 07:02:30;;;;;;;5.03;1.60;;;20.60;1.00;;;;;;7390294;19;20014;-64
2023/07/16 07:05:00;;;;;;;5.78;1.40;;;21.10;1.00;;;;;;7389911;19;20018;-64
2023/07/16 07:07:30;;;;;;;4.95;1.45;;;21.00;1.00;;;;;;7388695;19;20018;-64
2023/07/16 07:09:59;;;;;;;4.75;1.45;;;21.20;1.00;;;;;;7389476;19;20031;-64
2023/07/16 07:12:30;;;;;;;3.95;1.40;;;20.80;1.00;;;;;;7389921;19;20126;-64
2023/07/16 07:15:00;;;;;;;3.58;1.50;;;20.30;1.00;;;;;;7386893;19;20474;-65
2023/07/16 07:17:33;;;;;;;6.45;1.55;;;20.80;1.00;;;;;;7389721;19;20600;-65
2023/07/16 07:20:03;;;;;;;3.30;1.20;;;21.10;1.00;;;;;;7388223;19;20092;-65
2023/07/16 07:22:33;;;;;;;4.80;1.65;;;21.10;1.00;;;;;;7389200;19;20482;-65
2023/07/16 07:25:03;;;;;;;6.18;1.60;;;21.10;1.00;;;;;;7388982;19;20027;-65
2023/07/16 07:27:34;;;;;;;5.68;1.70;;;20.70;1.00;;;;;;7389707;19;20018;-64
2023/07/16 07:30:04;;;;;;;6.10;2.03;;;20.40;1.00;;;;;;7388484;19;20014;-64
2023/07/16 07:32:40;;;;;;;4.38;1.60;;;20.20;1.00;;;;;;7389692;19;20038;-64
2023/07/16 07:35:10;;;;;;;6.53;1.65;;;20.60;1.00;;;;;;7388774;19;20783;-64
2023/07/16 07:37:40;;;;;;;6.60;1.50;;;21.60;1.00;;;;;;7389363;19;20031;-65
2023/07/16 07:40:11;;;;;;;3.58;1.50;;;21.80;1.00;;;;;;7388281;19;20263;-64
2023/07/16 07:42:41;;;;;;;4.07;1.95;;;21.60;1.00;;;;;;7389462;19;20006;-64
2023/07/16 07:45:12;;;;;;;2.55;1.48;;;21.40;1.00;;;;;;7389260;19;20059;-64
2023/07/16 07:47:45;;;;;;;6.38;1.80;;;21.70;1.00;;;;;;7388798;19;20633;-65
2023/07/16 07:50:15;;;;;;;6.47;1.58;;;21.90;1.00;;;;;;7387891;19;20035;-65
2023/07/16 07:52:45;;;;;;;10.07;1.40;;;21.70;1.00;;;;;;7388181;19;20360;-65
2023/07/16 07:55:15;;;;;;;5.60;1.30;;;22.00;1.00;;;;;;7388384;19;20047;-65
2023/07/16 07:57:45;;;;;;;7.80;1.88;;;22.20;1.00;;;;;;7388579;19;20019;-65
2023/07/16 08:00:16;;;;;;;3.80;1.83;;;21.90;1.00;;;;;;7387428;19;20031;-65
2023/07/16 08:02:48;;;;;;;5.68;1.48;;;21.50;1.00;;;;;;7386940;19;20010;-65
2023/07/16 08:05:18;;;;;;;4.22;1.63;;;21.20;1.00;;;;;;7387911;19;20018;-65
2023/07/16 08:07:48;;;;;;;6.32;1.75;;;20.80;1.00;;;;;;7388805;19;20038;-65
2023/07/16 08:10:18;;;;;;;5.15;1.63;;;21.20;1.00;;;;;;7387520;19;20019;-65
2023/07/16 08:12:48;;;;;;;4.63;1.88;;;21.20;1.00;;;;;;7388455;19;20022;-64
2023/07/16 08:15:18;;;;;;;7.00;1.50;;;21.40;1.00;;;;;;7387706;19;20011;-64
2023/07/16 08:17:51;;;;;;;4.50;1.73;;;21.80;1.00;;;;;;7387952;19;20064;-64
2023/07/16 08:20:21;;;;;;;3.08;1.42;;;21.60;1.00;;;;;;7387119;19;20482;-65
2023/07/16 08:22:51;;;;;;;6.15;1.63;;;22.20;1.00;;;;;;7385994;19;20037;-64
2023/07/16 08:25:21;;;;;;;5.13;1.38;;;22.60;1.00;;;;;;7387111;19;20018;-65
2023/07/16 08:27:51;;;;;;;4.68;1.63;;;22.20;1.00;;;;;;7393705;19;20018;-65
2023/07/16 08:30:21;;;;;;;3.22;1.52;;;22.20;1.00;;;;;;7393999;19;20015;-65
2023/07/16 08:32:53;;;;;;;3.30;1.30;;;22.80;1.00;;;;;;7395870;19;20023;-65
2023/07/16 08:35:23;;;;;;;7.00;2.53;;;22.60;1.00;;;;;;7395047;19;20331;-64
2023/07/16 08:37:53;;;;;;;6.28;1.60;;;21.70;1.00;;;;;;7395185;19;20391;-64
2023/07/16 08:40:23;;;;;;;7.55;1.58;;;21.50;1.00;;;;;;7393894;19;20019;-64
2023/07/16 08:42:54;;;;;;;6.80;1.50;;;21.10;1.00;;;;;;7393228;19;20018;-65
2023/07/16 08:45:25;;;;;;;4.47;1.75;;;21.20;1.00;;;;;;7395558;19;20014;-64
2023/07/16 08:47:58;;;;;;;5.43;1.38;;;20.90;1.00;;;;;;7394936;19;20030;-64
2023/07/16 08:50:30;;;;;;;6.30;1.60;;;21.00;1.00;;;;;;7393136;19;20018;-64
2023/07/16 08:53:02;;;;;;;6.05;1.88;;;21.60;1.00;;;;;;7394979;19;20025;-64
2023/07/16 08:55:33;;;;;;;5.80;1.67;;;21.40;1.00;;;;;;7393837;19;20018;-64
2023/07/16 08:58:05;;;;;;;3.60;1.55;;;21.10;1.00;;;;;;7394770;19;20010;-64
2023/07/16 09:00:36;;;;;;;5.60;1.63;;;21.10;1.00;;;;;;7392699;19;20029;-65
2023/07/16 09:03:08;;;;;;;3.22;1.33;;;21.40;1.00;;;;;;7392567;19;20014;-64
2023/07/16 09:05:39;;;;;;;3.30;1.52;;;21.50;1.00;;;;;;7393938;19;20564;-65
2023/07/16 09:08:10;;;;;;;6.03;1.92;;;21.00;1.00;;;;;;7396234;19;20021;-63
2023/07/16 09:10:40;;;;;;;2.55;1.30;;;21.10;1.00;;;;;;7392734;19;20006;-64
2023/07/16 09:13:10;;;;;;;2.75;1.70;;;21.10;1.00;;;;;;7394579;19;20019;-64
2023/07/16 09:15:41;;;;;;;5.93;1.73;;;21.40;1.00;;;;;;7393919;19;20074;-64
2023/07/16 09:18:13;;;;;;;4.82;1.50;;;21.80;1.00;;;;;;7393908;19;20018;-65
2023/07/16 09:20:45;;;;;;;;;;;22.10;1.00;;;;;;7393339;19;20018;-65
2023/07/16 09:23:15;;;;;;;3.80;1.60;;;21.80;1.00;;;;;;7392406;19;20251;-65
2023/07/16 09:25:46;;;;;;;5.65;1.58;;;22.70;1.00;;;;;;7393784;19;20082;-64
2023/07/16 09:28:16;;;;;;;3.20;1.58;;;23.20;1.00;;;;;;7394060;19;20019;-65
2023/07/16 09:30:46;;;;;;;6.15;1.92;;;22.30;1.00;;;;;;7391869;19;20096;-64
2023/07/16 09:33:21;;;;;;;5.68;1.90;;;22.30;1.00;;;;;;7393850;19;20514;-64
2023/07/16 09:35:51;;;;;;;5.93;1.58;;;21.60;1.00;;;;;;7393488;19;20047;-64
2023/07/16 09:38:21;;;;;;;4.85;1.60;;;22.50;1.00;;;;;;7392158;19;20011;-64
2023/07/16 09:40:51;;;;;;;3.70;1.88;;;22.50;1.00;;;;;;7391724;19;20034;-64
2023/07/16 09:43:21;;;;;;;6.68;1.50;;;22.80;1.00;;;;;;7391232;19;20014;-63
2023/07/16 09:45:52;;;;;;;2.70;1.70;;;22.20;1.00;;;;;;7394942;19;20035;-64
2023/07/16 09:48:24;;;;;;;6.50;1.60;;;23.40;1.00;;;;;;7393317;19;20037;-64
2023/07/16 09:50:56;;;;;;;4.03;1.40;;;22.90;1.00;;;;;;7391964;19;20395;-64
2023/07/16 09:53:27;;;;;;;4.50;1.30;;;22.80;1.00;;;;;;7393716;19;20337;-64
2023/07/16 09:55:58;;;;;;;5.18;1.80;;;22.20;1.00;;;;;;7392616;19;20017;-65
2023/07/16 09:58:30;;;;;;;3.97;1.45;;;22.00;1.00;;;;;;7393304;19;20059;-64
2023/07/16 10:01:01;;;;;;;4.55;1.70;;;22.30;1.00;;;;;;7391095;19;20415;-64
2023/07/16 10:03:33;;;;;;;4.97;1.52;;;22.60;1.00;;;;;;7390202;19;20082;-64
2023/07/16 10:06:09;;;;;;;3.28;1.40;;;22.40;1.00;;;;;;7392002;19;20123;-64
2023/07/16 10:08:39;;;;;;;9.48;1.80;;;22.60;1.00;;;;;;7392888;19;20112;-64
2023/07/16 10:11:18;;;;;;;5.03;1.73;;;22.20;1.00;;;;;;7390044;19;20018;-64
2023/07/16 10:13:52;;;;;;;4.32;1.58;;;21.70;1.00;;;;;;7392354;19;20014;-63
2023/07/16 10:16:24;;;;;;;;;;;22.40;1.00;;;;;;7392759;19;20011;-64
2023/07/16 10:18:58;;;;;;;4.28;1.58;;;22.40;1.00;;;;;;7391746;19;19938;-64
2023/07/16 10:21:28;;;;;;;2.95;1.77;;;22.70;1.00;;;;;;7390383;19;20018;-65
2023/07/16 10:24:03;;;;;;;2.95;1.50;;;23.10;1.00;;;;;;7389921;19;20078;-63
2023/07/16 10:26:32;;;;;;;4.07;1.60;;;22.20;1.00;;;;;;7391744;19;20014;-65
2023/07/16 10:29:02;;;;;;;3.30;1.40;;;22.70;1.00;;;;;;7391478;19;20015;-64
2023/07/16 10:31:36;;;;;;;7.75;1.65;;;23.70;1.00;;;;;;7389906;19;20038;-64
2023/07/16 10:34:09;;;;;;;3.03;1.40;;;24.00;1.00;;;;;;7391229;19;20015;-65
2023/07/16 10:36:42;;;;;;;3.67;1.50;;;24.40;1.00;;;;;;7390472;19;20011;-64
2023/07/16 10:39:12;;;;;;;6.57;1.92;;;24.30;1.00;;;;;;7391599;19;20314;-64
2023/07/16 10:41:43;;;;;;;5.07;1.90;;;24.40;1.00;;;;;;7389129;19;20033;-64
2023/07/16 10:44:16;;;;;;;3.40;1.65;;;23.80;1.00;;;;;;7389055;19;20511;-65
2023/07/16 10:46:46;;;;;;;;;;;23.00;1.00;;;;;;7395150;19;20018;-65
2023/07/16 10:49:28;;;;;;;4.82;1.55;;;23.20;1.00;;;;;;7390555;19;20046;-64
2023/07/16 10:51:59;;;;;;;6.43;1.73;;;23.00;1.00;;;;;;7389858;19;20007;-69
2023/07/16 10:54:29;;;;;;;2.97;1.40;;;22.90;1.00;;;;;;7391048;19;20532;-64
2023/07/16 10:56:59;;;;;;;4.13;1.58;;;22.30;1.00;;;;;;7391392;19;20350;-65
2023/07/16 10:59:30;;;;;;;4.18;1.58;;;23.30;1.00;;;;;;7389490;19;20108;-64
2023/07/16 11:02:01;;;;;;;4.63;1.90;;;23.10;1.00;;;;;;7390652;19;20502;-65
2023/07/16 11:04:38;;;;;;;3.33;1.70;;;22.50;1.00;;;;;;7388719;19;20372;-64
2023/07/16 11:07:11;;;;;;;4.07;1.55;;;23.00;1.00;;;;;;7389006;19;20014;-65
2023/07/16 11:09:48;;;;;;;5.40;1.75;;;23.30;1.00;;;;;;7389739;19;20015;-64
2023/07/16 11:12:20;;;;;;;3.47;1.55;;;23.70;1.00;;;;;;7390805;19;20367;-65
2023/07/16 11:14:51;;;;;;;4.85;1.77;;;24.00;1.00;;;;;;7390525;19;20086;-65
2023/07/16 11:17:22;;;;;;;5.45;1.33;;;24.50;1.00;;;;;;7390507;19;20047;-65
2023/07/16 11:19:56;;;;;;;5.93;2.10;;;24.00;1.00;;;;;;7389660;19;20010;-64
2023/07/16 11:22:29;;;;;;;3.50;1.55;;;24.30;1.00;;;;;;7390278;19;20014;-64
2023/07/16 11:24:59;;;;;;;5.15;1.80;;;24.20;1.00;;;;;;7389641;19;20010;-63
2023/07/16 11:27:32;;;;;;;3.45;1.70;;;23.90;1.00;;;;;;7389864;19;20014;-65
2023/07/16 11:30:03;;;;;;;4.70;1.65;;;23.40;1.00;;;;;;7389299;19;20019;-63
2023/07/16 11:32:35;;;;;;;3.70;1.50;;;22.90;1.00;;;;;;7389741;19;20470;-64
2023/07/16 11:35:09;;;;;;;5.05;1.83;;;24.20;1.00;;;;;;7389127;19;20014;-64
2023/07/16 11:37:39;;;;;;;4.38;1.70;;;23.80;1.00;;;;;;7388156;19;20038;-64
2023/07/16 11:40:11;;;;;;;3.30;1.67;;;24.60;1.00;;;;;;7388479;19;20022;-65
2023/07/16 11:42:41;;;;;;;4.25;1.77;;;24.80;1.00;;;;;;7389544;19;20011;-65
2023/07/16 11:45:18;;;;;;;2.15;1.42;;;25.60;1.00;;;;;;7389715;19;20017;-64
2023/07/16 11:47:49;;;;;;;3.95;1.40;;;25.70;1.00;;;;;;7388658;19;20011;-64
2023/07/16 11:50:22;;;;;;;5.45;1.77;;;25.80;1.00;;;;;;7388332;19;20074;-65
2023/07/16 11:52:55;;;;;;;3.40;1.60;;;25.60;1.00;;;;;;7388946;19;20485;-67
2023/07/16 11:55:25;;;;;;;5.00;1.70;;;25.40;1.00;;;;;;7389469;19;20006;-65
2023/07/16 11:57:56;;;;;;;3.60;1.45;;;25.40;1.00;;;;;;7387851;19;20037;-64
2023/07/16 12:00:27;;;;;;;4.82;1.88;;;25.30;1.00;;;;;;7387740;19;20049;-65
2023/07/16 12:02:56;;;;;;;4.25;1.60;;;25.80;1.00;;;;;;7393880;19;20042;-65
2023/07/16 12:05:29;;;;;;;3.33;1.70;;;26.20;1.00;;;;;;7396201;19;20014;-66
2023/07/16 12:08:19;;;;;;;4.25;1.60;;;26.20;1.00;;;;;;7397070;19;20023;-64
2023/07/16 12:10:49;;;;;;;3.85;1.92;;;25.10;1.00;;;;;;7395614;19;20037;-63
2023/07/16 12:13:19;;;;;;;2.63;1.45;;;24.70;1.00;;;;;;7396121;19;20018;-64
2023/07/16 12:15:49;;;;;;;3.30;1.95;;;24.70;1.00;;;;;;7395066;19;20022;-66
2023/07/16 12:18:19;;;;;;;3.80;1.60;;;25.40;1.00;;;;;;7395653;19;20018;-64
2023/07/16 12:20:52;;;;;;;2.45;1.40;;;25.80;1.00;;;;;;7394239;19;20011;-65
2023/07/16 12:23:22;;;;;;;3.47;1.75;;;26.10;1.00;;;;;;7394930;19;20021;-64
2023/07/16 12:25:53;;;;;;;3.38;1.73;;;24.40;1.00;;;;;;7396375;19;20086;-64
2023/07/16 12:28:23;;;;;;;3.00;1.60;;;24.20;1.00;;;;;;7396537;19;20014;-64
2023/07/16 12:30:52;;;;;;;3.38;1.65;;;24.30;1.00;;;;;;7394446;19;20083;-64
2023/07/16 12:33:23;;;;;;;4.00;1.63;;;24.60;1.00;;;;;;7395190;19;20038;-65
2023/07/16 12:35:55;;;;;;;5.43;4.80;;;25.30;1.00;;;;;;7395851;19;20346;-65
2023/07/16 12:38:26;;;;;;;3.55;2.20;;;26.10;1.00;;;;;;7395391;19;20015;-65
2023/07/16 12:40:56;;;;;;;3.70;1.67;;;25.80;1.00;;;;;;7393737;19;20035;-65
2023/07/16 12:43:26;;;;;;;2.92;1.45;;;24.90;1.00;;;;;;7393269;19;20033;-64
2023/07/16 12:45:56;;;;;;;2.80;1.42;;;25.50;1.00;;;;;;7396794;19;20038;-64
2023/07/16 12:48:26;;;;;;;3.92;1.63;;;25.30;1.00;;;;;;7395347;19;20022;-64
2023/07/16 12:50:58;;;;;;;2.65;1.48;;;25.70;1.00;;;;;;7394160;19;20469;-64
2023/07/16 12:53:28;;;;;;;2.53;1.50;;;25.10;1.00;;;;;;7395078;19;20018;-64
2023/07/16 12:55:58;;;;;;;3.67;1.75;;;25.00;1.00;;;;;;7395328;19;20014;-64
2023/07/16 12:58:31;;;;;;;3.55;1.52;;;25.40;1.00;;;;;;7392679;19;20029;-64
2023/07/16 13:01:01;;;;;;;3.45;1.58;;;25.60;1.00;;;;;;7392614;19;20038;-64
2023/07/16 13:03:31;;;;;;;2.70;1.67;;;25.00;1.00;;;;;;7394319;19;20379;-65
2023/07/16 13:06:03;;;;;;;2.90;1.45;;;25.70;1.00;;;;;;7394420;19;20077;-65
2023/07/16 13:08:34;;;;;;;2.53;1.33;;;25.70;1.00;;;;;;7394381;19;20011;-64
2023/07/16 13:11:04;;;;;;;3.72;1.73;;;25.70;1.00;;;;;;7392717;19;20146;-64
2023/07/16 13:13:35;;;;;;;3.90;1.60;;;25.20;1.00;;;;;;7391213;19;20529;-64
2023/07/16 13:16:05;;;;;;;4.45;1.67;;;25.50;1.00;;;;;;7394731;19;20049;-64